Time;durP1;ratioP1;P1;durP2;ratioP2;P2;SDS_P1;SDS_P2;PMS_P1;PMS_P2;Temp;Humidity;BMP_temperature;BMP_pressure;BME280_temperature;BME280_humidity;BME280_pressure;Samples;Min_cycle;Max_cycle;Signal;HPM_P1;HPM_P2
2021/04/20 00:00:56;;;;;;;3.80;3.40;;;16.10;60.20;;;;;;4976775;28;20106;-39
2021/04/20 00:03:22;;;;;;;3.40;3.10;;;16.20;84.50;;;;;;4976926;28;20051;-39
2021/04/20 00:05:47;;;;;;;3.65;3.35;;;16.10;60.20;;;;;;4976900;28;20031;-39
2021/04/20 00:08:13;;;;;;;3.92;3.55;;;16.10;60.20;;;;;;4976846;28;20019;-39
2021/04/20 00:10:38;;;;;;;4.15;3.40;;;15.90;60.10;;;;;;4959120;28;20044;-38
2021/04/20 00:13:04;;;;;;;3.83;3.42;;;16.10;60.20;;;;;;4976743;28;20117;-39
2021/04/20 00:15:33;;;;;;;3.30;3.00;;;16.10;60.20;;;;;;4976459;28;20133;-39
2021/04/20 00:18:01;;;;;;;3.63;3.25;;;16.10;60.20;;;;;;4976658;28;20106;-39
2021/04/20 00:20:27;;;;;;;3.85;3.47;;;16.10;60.20;;;;;;4976656;28;20039;-39
2021/04/20 00:22:53;;;;;;;4.15;3.75;;;16.00;84.40;;;;;;4976287;28;20381;-39
2021/04/20 00:25:19;;;;;;;4.68;3.30;;;16.10;60.20;;;;;;4976294;28;20532;-38
2021/04/20 00:27:45;;;;;;;4.55;3.67;;;16.10;60.20;;;;;;4976504;28;20026;-39
2021/04/20 00:30:11;;;;;;;3.90;3.50;;;16.10;60.20;;;;;;4976430;28;20023;-39
2021/04/20 00:32:37;;;;;;;3.53;3.22;;;16.10;60.20;;;;;;4958730;28;20518;-39
2021/04/20 00:35:04;;;;;;;3.50;3.20;;;16.10;60.20;;;;;;4976362;28;20030;-39
2021/04/20 00:37:30;;;;;;;3.22;2.92;;;16.00;60.20;;;;;;4976285;28;20042;-39
2021/04/20 00:39:56;;;;;;;4.65;3.55;;;15.90;60.10;;;;;;4975977;28;20039;-39
2021/04/20 00:42:22;;;;;;;3.92;3.40;;;15.80;60.00;;;;;;4975910;28;20113;-39
2021/04/20 00:44:47;;;;;;;3.90;3.35;;;16.00;60.20;;;;;;4976171;28;20118;-39
2021/04/20 00:47:13;;;;;;;5.88;3.80;;;16.00;60.20;;;;;;4975825;28;20380;-39
2021/04/20 00:49:39;;;;;;;3.80;3.05;;;16.00;60.20;;;;;;4976080;28;20014;-39
2021/04/20 00:52:05;;;;;;;4.47;3.55;;;16.00;60.20;;;;;;4975853;28;20026;-39
2021/04/20 00:54:32;;;;;;;4.47;4.07;;;;;;;;;;4975721;28;20054;-38
2021/04/20 00:56:57;;;;;;;3.92;3.50;;;16.00;59.60;;;;;;4975885;28;20113;-39
2021/04/20 00:59:23;;;;;;;4.20;3.80;;;16.00;60.10;;;;;;4975816;28;20123;-39
2021/04/20 01:01:49;;;;;;;4.13;3.58;;;16.30;60.30;;;;;;4975611;28;20082;-39
2021/04/20 01:04:16;;;;;;;3.70;3.40;;;16.30;85.10;;;;;;4975841;28;20105;-39
2021/04/20 01:06:44;;;;;;;4.15;3.70;;;16.00;60.10;;;;;;4975814;28;20115;-39
2021/04/20 01:09:10;;;;;;;4.05;3.63;;;16.00;60.10;;;;;;4975774;28;20037;-39
2021/04/20 01:11:37;;;;;;;4.03;3.72;;;15.90;60.10;;;;;;4975718;28;20090;-39
2021/04/20 01:14:04;;;;;;;3.60;3.30;;;15.90;60.10;;;;;;4975726;28;20038;-39
2021/04/20 01:16:32;;;;;;;3.38;3.08;;;16.00;60.10;;;;;;4975227;28;20070;-39
2021/04/20 01:18:57;;;;;;;4.15;3.75;;;16.00;60.20;;;;;;4975532;28;20069;-39
2021/04/20 01:21:23;;;;;;;3.40;3.08;;;15.90;60.10;;;;;;4975553;28;20054;-39
2021/04/20 01:24:27;;;;;;;3.70;3.40;;;15.90;60.10;;;;;;4975159;28;20031;-39
2021/04/20 01:26:56;;;;;;;3.42;3.13;;;15.90;60.00;;;;;;4975560;28;20109;-39
2021/04/20 01:29:22;;;;;;;4.30;3.88;;;15.90;60.10;;;;;;4975113;28;20031;-39
2021/04/20 01:31:49;;;;;;;4.10;3.70;;;15.90;60.10;;;;;;4975168;28;20106;-38
2021/04/20 01:34:15;;;;;;;4.20;3.80;;;16.00;60.10;;;;;;4975324;28;20102;-39
2021/04/20 01:36:41;;;;;;;4.00;3.50;;;15.90;60.10;;;;;;4975035;28;20042;-39
2021/04/20 01:39:10;;;;;;;3.70;3.40;;;15.90;60.10;;;;;;4975214;28;20050;-39
2021/04/20 01:41:36;;;;;;;3.85;3.55;;;15.90;59.60;;;;;;4975130;28;20027;-39
2021/04/20 01:44:03;;;;;;;3.78;3.47;;;15.90;60.10;;;;;;4975171;28;20117;-39
2021/04/20 01:46:29;;;;;;;4.03;3.65;;;15.90;60.10;;;;;;4975097;28;20022;-39
2021/04/20 01:48:55;;;;;;;4.32;3.53;;;15.90;60.10;;;;;;4975105;28;20019;-39
2021/04/20 01:51:22;;;;;;;4.25;3.47;;;15.90;60.10;;;;;;4974836;28;20023;-39
2021/04/20 01:53:48;;;;;;;4.63;4.07;;;15.90;60.10;;;;;;4974950;28;20049;-39
2021/04/20 01:56:14;;;;;;;4.53;3.40;;;15.80;60.00;;;;;;4974594;28;20089;-39
2021/04/20 01:58:42;;;;;;;4.03;3.72;;;15.90;60.10;;;;;;4974808;28;20377;-39
2021/04/20 02:01:15;;;;;;;4.22;3.80;;;15.80;60.70;;;;;;4974524;28;20470;-39
2021/04/20 02:03:43;;;;;;;4.20;3.60;;;15.80;60.00;;;;;;4974760;28;20055;-39
2021/04/20 02:06:09;;;;;;;4.90;4.25;;;15.80;60.00;;;;;;4974736;28;20413;-39
2021/04/20 02:08:36;;;;;;;4.28;3.83;;;15.90;60.10;;;;;;4974187;28;20026;-39
2021/04/20 02:11:06;;;;;;;4.95;4.30;;;15.80;60.00;;;;;;4974344;28;20018;-39
2021/04/20 02:13:33;;;;;;;4.13;3.70;;;15.80;59.50;;;;;;4974590;28;20430;-39
2021/04/20 02:16:06;;;;;;;4.07;3.67;;;15.80;60.00;;;;;;4974155;28;20066;-39
2021/04/20 02:18:35;;;;;;;4.55;4.15;;;15.80;60.00;;;;;;4974453;28;20049;-39
2021/04/20 02:21:01;;;;;;;4.32;3.92;;;15.80;60.10;;;;;;4974409;28;20105;-39
2021/04/20 02:23:27;;;;;;;4.53;4.13;;;15.80;60.00;;;;;;4974403;28;20469;-39
2021/04/20 02:25:55;;;;;;;4.03;3.70;;;15.80;60.00;;;;;;4974075;28;20062;-39
2021/04/20 02:28:21;;;;;;;4.03;3.65;;;15.80;60.00;;;;;;4956620;28;20496;-39
2021/04/20 02:30:47;;;;;;;4.53;4.10;;;15.80;60.00;;;;;;4973939;28;20118;-39
2021/04/20 02:33:13;;;;;;;4.53;4.13;;;15.80;60.00;;;;;;4973920;28;20057;-39
2021/04/20 02:35:39;;;;;;;4.47;4.07;;;15.80;60.10;;;;;;4973998;28;20058;-39
2021/04/20 02:38:06;;;;;;;5.05;4.53;;;15.80;60.00;;;;;;4973858;28;20023;-39
2021/04/20 02:40:34;;;;;;;4.55;4.15;;;15.60;59.90;;;;;;4973723;28;20042;-39
2021/04/20 02:43:00;;;;;;;5.22;4.43;;;15.80;60.00;;;;;;4974041;28;20085;-39
2021/04/20 02:45:27;;;;;;;4.72;4.32;;;15.80;60.10;;;;;;4973945;28;20062;-39
2021/04/20 02:47:54;;;;;;;4.63;4.22;;;15.80;60.00;;;;;;4973953;28;20414;-40
2021/04/20 02:50:26;;;;;;;4.97;4.28;;;16.10;60.20;;;;;;4973950;28;20026;-39
2021/04/20 02:52:54;;;;;;;5.13;4.43;;;15.70;60.00;;;;;;4973612;28;20067;-39
2021/04/20 02:55:21;;;;;;;4.68;4.28;;;15.70;60.00;;;;;;4973856;28;20026;-39
2021/04/20 02:57:51;;;;;;;4.70;4.20;;;15.70;60.00;;;;;;4973719;28;20110;-39
2021/04/20 03:00:22;;;;;;;5.40;4.90;;;15.70;60.00;;;;;;4973272;28;20034;-39
2021/04/20 03:02:53;;;;;;;4.85;4.22;;;15.70;60.00;;;;;;4973777;28;20019;-39
2021/04/20 03:05:21;;;;;;;4.50;4.10;;;15.70;60.00;;;;;;4973731;28;20081;-38
2021/04/20 03:07:48;;;;;;;4.85;4.45;;;15.70;60.00;;;;;;4973672;28;20026;-39
2021/04/20 03:10:15;;;;;;;5.32;4.40;;;15.70;60.00;;;;;;4973693;28;20014;-39
2021/04/20 03:12:42;;;;;;;4.88;4.43;;;15.70;60.00;;;;;;4973615;28;20051;-39
2021/04/20 03:15:11;;;;;;;4.90;4.38;;;15.60;59.90;;;;;;4973357;28;20512;-39
2021/04/20 03:17:41;;;;;;;4.88;4.47;;;15.70;60.00;;;;;;4956690;28;20033;-39
2021/04/20 03:20:09;;;;;;;4.97;4.47;;;15.70;60.00;;;;;;4972644;28;20043;-39
2021/04/20 03:22:36;;;;;;;5.28;4.78;;;15.70;60.00;;;;;;4973218;28;20501;-39
2021/04/20 03:25:04;;;;;;;4.95;4.50;;;15.70;59.90;;;;;;4973532;28;20378;-38
2021/04/20 03:27:30;;;;;;;4.35;3.95;;;15.70;59.90;;;;;;4973289;28;20027;-39
2021/04/20 03:29:56;;;;;;;5.75;4.95;;;15.60;59.90;;;;;;4973442;28;20042;-39
2021/04/20 03:32:21;;;;;;;5.43;4.90;;;15.60;59.90;;;;;;4973140;28;20510;-39
2021/04/20 03:34:59;;;;;;;5.05;4.53;;;15.60;59.90;;;;;;4973179;28;20097;-39
2021/04/20 03:37:33;;;;;;;5.18;4.53;;;15.70;59.90;;;;;;4973276;28;20376;-39
2021/04/20 03:40:00;;;;;;;4.40;4.00;;;15.70;59.90;;;;;;4973091;28;20039;-39
2021/04/20 03:42:42;;;;;;;5.90;4.68;;;15.60;59.90;;;;;;4973361;28;20054;-39
2021/04/20 03:45:15;;;;;;;5.53;4.68;;;15.60;59.90;;;;;;4973370;28;20046;-39
2021/04/20 03:47:44;;;;;;;4.90;4.40;;;15.60;59.80;;;;;;4973247;28;20023;-39
2021/04/20 03:50:18;;;;;;;6.05;5.05;;;15.70;59.90;;;;;;4972988;28;20062;-39
2021/04/20 03:52:47;;;;;;;5.82;5.22;;;15.60;59.90;;;;;;4973295;28;20037;-39
2021/04/20 03:55:16;;;;;;;5.53;4.95;;;15.60;59.80;;;;;;4973001;28;20482;-41
2021/04/20 03:57:45;;;;;;;5.38;4.85;;;15.60;84.10;;;;;;4973203;28;20378;-39
2021/04/20 04:00:15;;;;;;;5.18;4.68;;;15.60;59.90;;;;;;4973113;28;20035;-39
2021/04/20 04:02:43;;;;;;;5.07;4.57;;;15.60;59.90;;;;;;4973196;28;20058;-39
2021/04/20 04:05:16;;;;;;;6.47;4.95;;;15.60;59.90;;;;;;4973113;28;20098;-39
2021/04/20 04:07:44;;;;;;;6.63;5.32;;;15.60;59.90;;;;;;4972876;28;20536;-39
2021/04/20 04:10:11;;;;;;;4.88;4.05;;;15.60;59.90;;;;;;4973142;28;20018;-39
2021/04/20 04:12:41;;;;;;;5.03;4.60;;;15.60;59.90;;;;;;4973074;28;20573;-39
2021/04/20 04:15:10;;;;;;;6.43;4.65;;;15.60;59.90;;;;;;4972673;28;20050;-39
2021/04/20 04:17:38;;;;;;;5.13;4.63;;;15.60;59.80;;;;;;4972674;28;20035;-39
2021/04/20 04:20:05;;;;;;;5.40;4.88;;;15.50;59.80;;;;;;4972962;28;20105;-38
2021/04/20 04:22:38;;;;;;;5.72;5.13;;;15.50;59.80;;;;;;4972755;28;20023;-39
2021/04/20 04:25:07;;;;;;;5.28;4.78;;;15.60;59.90;;;;;;4972707;28;20528;-39
2021/04/20 04:27:39;;;;;;;5.85;5.00;;;15.50;59.80;;;;;;4972796;28;20030;-39
2021/04/20 04:30:09;;;;;;;6.72;5.50;;;15.30;59.70;;;;;;4972952;28;20027;-39
2021/04/20 04:32:36;;;;;;;;;;;15.50;59.80;;;;;;4976883;28;20058;-38
2021/04/20 04:35:04;;;;;;;5.68;5.00;;;15.50;59.80;;;;;;4976372;28;19913;-39
2021/04/20 04:37:30;;;;;;;5.38;4.88;;;15.50;59.80;;;;;;4976308;28;20027;-39
2021/04/20 04:39:57;;;;;;;5.82;4.85;;;15.50;59.80;;;;;;4976299;28;20075;-39
2021/04/20 04:42:23;;;;;;;5.75;5.10;;;15.50;59.80;;;;;;4976329;28;20027;-39
2021/04/20 04:44:49;;;;;;;5.53;4.95;;;15.50;59.80;;;;;;4976277;28;20027;-39
2021/04/20 04:47:15;;;;;;;5.35;4.75;;;15.50;59.80;;;;;;4976291;28;20126;-39
2021/04/20 04:49:41;;;;;;;5.45;4.95;;;15.50;59.80;;;;;;4975856;28;20027;-38
2021/04/20 04:52:08;;;;;;;5.88;5.28;;;15.50;59.90;;;;;;4976152;28;20037;-38
2021/04/20 04:54:33;;;;;;;5.88;5.10;;;15.70;85.30;;;;;;4975765;28;20536;-38
2021/04/20 04:57:01;;;;;;;6.10;5.30;;;15.50;59.80;;;;;;4975951;28;20027;-39
2021/04/20 04:59:29;;;;;;;5.32;4.70;;;15.60;59.90;;;;;;4975857;28;20090;-39
2021/04/20 05:01:55;;;;;;;6.35;4.95;;;15.50;59.80;;;;;;4975882;28;20085;-38
2021/04/20 05:04:25;;;;;;;5.10;4.60;;;15.50;59.80;;;;;;4975895;28;20030;-39
2021/04/20 05:06:52;;;;;;;5.93;5.35;;;15.50;59.90;;;;;;4975865;28;20030;-38
2021/04/20 05:09:23;;;;;;;5.40;4.90;;;15.40;59.70;;;;;;4975435;28;20059;-39
2021/04/20 05:11:50;;;;;;;7.28;5.55;;;15.40;59.70;;;;;;4975535;28;20029;-39
2021/04/20 05:14:20;;;;;;;6.03;5.25;;;15.40;59.80;;;;;;4975534;28;20378;-39
2021/04/20 05:16:48;;;;;;;6.53;5.68;;;15.40;59.80;;;;;;4975650;28;20086;-39
2021/04/20 05:19:18;;;;;;;5.47;4.63;;;15.50;59.70;;;;;;4975191;28;20023;-39
2021/04/20 05:21:47;;;;;;;5.30;4.80;;;15.40;59.70;;;;;;4975337;28;20492;-39
2021/04/20 05:24:13;;;;;;;5.50;5.00;;;15.50;59.70;;;;;;4975299;28;20027;-38
2021/04/20 05:26:38;;;;;;;5.63;4.75;;;15.50;59.70;;;;;;4975559;28;20038;-38
2021/04/20 05:29:05;;;;;;;5.97;5.00;;;15.40;59.70;;;;;;4975415;28;20141;-38
2021/04/20 05:31:31;;;;;;;6.82;5.65;;;15.50;59.80;;;;;;4975458;28;20378;-38
2021/04/20 05:34:03;;;;;;;5.70;5.15;;;15.40;59.70;;;;;;4975346;28;20516;-39
2021/04/20 05:36:29;;;;;;;7.70;6.47;;;15.40;59.60;;;;;;4975242;28;20026;-38
2021/04/20 05:39:02;;;;;;;11.70;5.43;;;15.40;59.70;;;;;;4975259;28;20038;-38
2021/04/20 05:41:30;;;;;;;6.80;5.78;;;15.40;59.60;;;;;;4975276;28;20433;-38
2021/04/20 05:43:57;;;;;;;6.75;5.78;;;15.40;59.60;;;;;;4974294;28;20031;-39
2021/04/20 05:46:24;;;;;;;6.70;5.63;;;15.40;59.60;;;;;;4975177;28;20031;-39
2021/04/20 05:48:51;;;;;;;6.50;5.82;;;15.40;59.50;;;;;;4974745;28;20118;-39
2021/04/20 05:51:19;;;;;;;6.65;5.43;;;15.40;59.50;;;;;;4974648;28;20093;-48
2021/04/20 05:53:46;;;;;;;7.75;6.30;;;15.40;59.60;;;;;;4974886;28;20035;-39
2021/04/20 05:56:13;;;;;;;7.47;6.75;;;15.40;59.50;;;;;;4974843;28;20029;-39
2021/04/20 05:58:39;;;;;;;7.25;6.47;;;15.40;59.50;;;;;;4974760;28;20114;-39
2021/04/20 06:01:05;;;;;;;7.15;5.97;;;15.40;59.50;;;;;;4974839;28;20110;-39
2021/04/20 06:03:36;;;;;;;7.88;6.38;;;15.40;59.60;;;;;;4974917;28;20027;-39
2021/04/20 06:06:03;;;;;;;7.57;6.05;;;15.40;59.60;;;;;;4974477;28;20030;-39
2021/04/20 06:08:35;;;;;;;8.02;5.65;;;15.40;59.60;;;;;;4974546;28;20027;-39
2021/04/20 06:11:04;;;;;;;8.18;6.30;;;15.40;59.60;;;;;;4974688;28;20031;-39
2021/04/20 06:13:29;;;;;;;7.72;6.70;;;15.60;59.90;;;;;;4974589;28;20110;-39
2021/04/20 06:15:55;;;;;;;8.32;7.05;;;15.40;59.70;;;;;;4974177;28;20131;-39
2021/04/20 06:18:23;;;;;;;7.45;5.50;;;15.50;59.60;;;;;;4974457;28;20034;-39
2021/04/20 06:20:49;;;;;;;8.10;5.88;;;15.50;59.90;;;;;;4974586;28;20038;-40
2021/04/20 06:23:15;;;;;;;7.68;5.32;;;15.50;60.10;;;;;;4974173;28;20504;-39
2021/04/20 06:25:43;;;;;;;7.82;5.25;;;15.60;60.00;;;;;;4974150;28;20478;-39
2021/04/20 06:28:11;;;;;;;11.88;6.10;;;15.50;59.90;;;;;;4974242;28;20019;-40
2021/04/20 06:30:37;;;;;;;7.75;5.78;;;15.50;60.50;;;;;;4956534;28;20149;-39
2021/04/20 06:33:06;;;;;;;8.68;5.40;;;15.60;60.70;;;;;;4973712;28;20023;-39
2021/04/20 06:35:32;;;;;;;7.53;5.90;;;15.60;60.70;;;;;;4973569;28;20475;-39
2021/04/20 06:37:58;;;;;;;6.85;5.85;;;15.60;60.70;;;;;;4974372;28;20026;-39
2021/04/20 06:40:35;;;;;;;6.95;6.03;;;15.60;61.40;;;;;;4973938;28;20038;-39
2021/04/20 06:43:04;;;;;;;7.65;5.90;;;15.60;60.70;;;;;;4973670;28;20023;-39
2021/04/20 06:45:36;;;;;;;8.68;6.10;;;15.60;60.60;;;;;;4974257;28;20031;-39
2021/04/20 06:48:12;;;;;;;7.05;6.28;;;15.60;60.40;;;;;;4974003;28;20097;-39
2021/04/20 06:50:38;;;;;;;7.82;5.90;;;15.70;60.50;;;;;;4973947;28;20121;-39
2021/04/20 06:53:18;;;;;;;9.20;6.40;;;15.60;60.40;;;;;;4973840;28;20023;-39
2021/04/20 06:56:07;;;;;;;9.25;6.82;;;15.40;60.20;;;;;;4973715;28;20029;-39
2021/04/20 06:58:44;;;;;;;9.77;6.30;;;15.70;60.40;;;;;;4972858;28;20572;-39
2021/04/20 07:01:14;;;;;;;7.82;6.65;;;16.70;60.80;;;;;;4973790;28;20086;-39
2021/04/20 07:03:45;;;;;;;;;;;15.80;60.30;;;;;;4973800;28;20493;-39
2021/04/20 07:06:32;;;;;;;8.65;6.90;;;15.70;60.20;;;;;;4973695;28;19961;-39
2021/04/20 07:09:08;;;;;;;9.73;6.88;;;15.80;60.30;;;;;;4973142;28;20041;-39
2021/04/20 07:11:40;;;;;;;8.38;6.10;;;15.90;60.30;;;;;;4973387;28;20027;-39
2021/04/20 07:14:06;;;;;;;9.95;6.15;;;15.80;60.20;;;;;;4973604;28;20030;-39
2021/04/20 07:16:46;;;;;;;14.00;6.28;;;15.90;60.20;;;;;;4973179;28;20560;-39
2021/04/20 07:19:17;;;;;;;9.25;6.03;;;15.90;60.20;;;;;;4973444;28;20027;-39
2021/04/20 07:22:07;;;;;;;6.80;5.78;;;15.90;60.10;;;;;;4973458;28;20034;-39
2021/04/20 07:24:44;;;;;;;7.57;6.50;;;15.90;60.00;;;;;;4973515;28;20045;-39
2021/04/20 07:27:28;;;;;;;7.88;5.43;;;16.00;60.00;;;;;;4973454;28;20117;-39
2021/04/20 07:30:09;;;;;;;6.03;5.43;;;16.00;60.00;;;;;;4973117;28;20023;-39
2021/04/20 07:32:55;;;;;;;6.30;5.32;;;16.00;60.00;;;;;;4973388;28;20015;-39
2021/04/20 07:35:32;;;;;;;7.03;5.55;;;16.10;60.00;;;;;;4973373;28;20033;-39
2021/04/20 07:38:02;;;;;;;7.30;5.55;;;16.10;60.00;;;;;;4973350;28;20033;-39
2021/04/20 07:40:48;;;;;;;7.30;5.07;;;16.10;60.00;;;;;;4973234;28;20055;-43
2021/04/20 07:43:34;;;;;;;6.28;5.30;;;16.10;59.90;;;;;;4973101;28;20027;-39
2021/04/20 07:46:12;;;;;;;6.15;4.47;;;16.10;59.90;;;;;;4973330;28;20073;-39
2021/04/20 07:48:41;;;;;;;7.65;5.05;;;16.20;60.00;;;;;;4955956;28;20034;-39
2021/04/20 07:51:14;;;;;;;7.15;5.30;;;16.20;60.00;;;;;;4973093;28;20023;-43
2021/04/20 07:54:06;;;;;;;7.10;4.82;;;16.20;59.90;;;;;;4973282;28;20034;-39
2021/04/20 07:56:46;;;;;;;5.15;4.63;;;16.20;59.80;;;;;;4936262;28;20500;-39
2021/04/20 07:59:18;;;;;;;5.82;4.28;;;16.30;59.90;;;;;;4972811;28;20470;-39
2021/04/20 08:01:54;;;;;;;6.18;4.70;;;16.30;59.90;;;;;;4973231;28;20046;-39
2021/04/20 08:04:31;;;;;;;4.95;4.45;;;16.30;59.90;;;;;;4972904;28;20054;-39
2021/04/20 08:07:06;;;;;;;5.38;4.68;;;16.40;59.80;;;;;;4975843;28;20027;-39
2021/04/20 08:09:37;;;;;;;4.07;3.67;;;16.30;59.70;;;;;;4976909;28;20051;-39
2021/04/20 08:12:07;;;;;;;4.78;4.30;;;16.50;59.70;;;;;;4976865;28;20074;-39
2021/04/20 08:15:11;;;;;;;4.90;4.18;;;16.50;59.70;;;;;;4976501;28;20034;-39
2021/04/20 08:17:57;;;;;;;6.18;4.45;;;16.50;59.80;;;;;;4897704;29;20568;-39
2021/04/20 08:20:25;;;;;;;4.28;3.88;;;16.50;59.70;;;;;;4972989;28;20070;-39
2021/04/20 08:22:53;;;;;;;5.25;4.40;;;16.40;59.60;;;;;;4976621;28;20019;-39
2021/04/20 08:25:38;;;;;;;4.93;3.90;;;16.60;59.60;;;;;;4976509;28;20070;-39
2021/04/20 08:28:24;;;;;;;3.90;3.50;;;16.70;59.70;;;;;;4976637;28;20057;-39
2021/04/20 08:31:01;;;;;;;4.03;3.60;;;16.70;59.70;;;;;;4976512;28;20051;-39
2021/04/20 08:33:34;;;;;;;3.65;3.35;;;16.80;59.60;;;;;;4976097;28;20042;-39
2021/04/20 08:36:08;;;;;;;5.50;3.28;;;16.90;59.60;;;;;;4976362;28;20019;-39
2021/04/20 08:38:53;;;;;;;4.35;3.40;;;16.70;84.80;;;;;;4976265;28;20033;-39
2021/04/20 08:41:29;;;;;;;4.75;3.70;;;16.90;59.30;;;;;;4976245;28;20037;-39
2021/04/20 08:44:24;;;;;;;5.18;3.63;;;16.90;59.40;;;;;;4975967;28;20493;-40
2021/04/20 08:46:58;;;;;;;3.83;3.22;;;17.10;58.70;;;;;;4975703;28;20513;-39
2021/04/20 08:49:37;;;;;;;4.68;2.90;;;17.10;59.30;;;;;;4976240;28;20022;-39
2021/04/20 08:52:29;;;;;;;3.72;3.38;;;17.10;59.20;;;;;;4976142;28;20050;-40
2021/04/20 08:55:13;;;;;;;3.38;3.10;;;17.30;83.90;;;;;;4976027;28;20015;-39
2021/04/20 08:58:00;;;;;;;4.10;2.65;;;17.20;59.00;;;;;;4975741;28;20034;-39
2021/04/20 09:00:39;;;;;;;3.05;2.83;;;17.30;59.00;;;;;;4975920;28;20422;-39
2021/04/20 09:03:39;;;;;;;4.68;2.75;;;17.30;58.90;;;;;;4975997;28;20026;-39
2021/04/20 09:06:09;;;;;;;5.10;2.97;;;17.40;58.80;;;;;;4975700;28;20041;-40
2021/04/20 09:08:44;;;;;;;3.10;2.83;;;17.40;58.70;;;;;;4975867;28;20019;-39
2021/04/20 09:11:11;;;;;;;4.05;3.05;;;17.40;58.70;;;;;;4975785;28;20023;-40
2021/04/20 09:13:58;;;;;;;3.17;2.67;;;17.30;58.60;;;;;;4975526;28;20477;-39
2021/04/20 09:16:44;;;;;;;3.20;2.90;;;17.50;58.60;;;;;;4975178;28;20089;-39
2021/04/20 09:19:44;;;;;;;3.03;2.72;;;17.60;58.50;;;;;;4974754;28;20031;-39
2021/04/20 09:22:12;;;;;;;;;;;17.60;58.30;;;;;;4976052;28;20027;-39
2021/04/20 09:24:53;;;;;;;2.78;2.50;;;17.70;58.30;;;;;;4975518;28;20315;-40
2021/04/20 09:27:28;;;;;;;3.00;2.50;;;17.60;58.20;;;;;;4975428;28;20023;-39
2021/04/20 09:29:56;;;;;;;2.80;2.10;;;17.70;58.30;;;;;;4975215;28;20500;-39
2021/04/20 09:32:34;;;;;;;2.92;2.58;;;17.70;58.20;;;;;;4975407;28;20481;-40
2021/04/20 09:35:01;;;;;;;3.42;2.15;;;17.80;58.70;;;;;;4975416;28;20031;-39
2021/04/20 09:37:29;;;;;;;2.63;2.40;;;17.90;58.00;;;;;;4974988;28;20031;-39
2021/04/20 09:39:56;;;;;;;2.65;2.30;;;17.90;58.60;;;;;;4975099;28;20027;-40
2021/04/20 09:42:24;;;;;;;2.50;2.30;;;17.70;57.80;;;;;;4975211;28;20019;-40
2021/04/20 09:45:17;;;;;;;5.72;2.53;;;18.10;84.10;;;;;;4975112;28;20042;-39
2021/04/20 09:47:49;;;;;;;3.30;2.17;;;18.00;57.60;;;;;;4975058;28;20162;-39
2021/04/20 09:50:49;;;;;;;3.80;3.25;;;18.00;57.50;;;;;;4975047;28;20016;-40
2021/04/20 09:53:52;;;;;;;2.47;2.22;;;18.10;57.50;;;;;;4975048;28;20026;-39
2021/04/20 09:56:26;;;;;;;2.97;2.53;;;18.20;82.60;;;;;;4974916;28;20046;-40
2021/04/20 09:58:51;;;;;;;2.78;2.50;;;18.20;57.30;;;;;;4974823;28;20082;-40
2021/04/20 10:01:54;;;;;;;2.38;2.17;;;18.20;57.30;;;;;;4974845;28;20035;-40
2021/04/20 10:04:38;;;;;;;2.10;2.00;;;18.30;57.20;;;;;;4974750;28;20038;-40
2021/04/20 10:07:31;;;;;;;2.75;2.22;;;18.30;57.10;;;;;;4974672;28;20022;-39
2021/04/20 10:10:34;;;;;;;3.55;2.55;;;18.30;57.00;;;;;;4975082;28;20034;-39
2021/04/20 10:13:24;;;;;;;3.30;2.15;;;18.30;56.90;;;;;;4974397;28;20415;-39
2021/04/20 10:16:05;;;;;;;2.58;2.38;;;18.40;56.80;;;;;;4974259;28;20050;-40
2021/04/20 10:18:46;;;;;;;2.30;2.10;;;18.30;56.70;;;;;;4974403;28;20099;-39
2021/04/20 10:21:28;;;;;;;2.40;2.20;;;18.40;56.70;;;;;;4974209;28;20035;-39
2021/04/20 10:24:01;;;;;;;2.45;2.25;;;18.50;56.60;;;;;;4974091;28;20023;-39
2021/04/20 10:26:41;;;;;;;2.30;1.98;;;18.40;56.50;;;;;;4974159;28;20081;-39
2021/04/20 10:29:15;;;;;;;2.00;1.53;;;18.60;56.40;;;;;;4973760;28;20031;-39
2021/04/20 10:32:34;;;;;;;2.17;1.98;;;18.50;56.40;;;;;;4974146;28;20147;-39
2021/04/20 10:35:03;;;;;;;2.40;2.20;;;18.60;56.20;;;;;;4895407;29;20456;-40
2021/04/20 10:37:34;;;;;;;2.10;2.00;;;18.60;56.20;;;;;;4969401;28;20027;-39
2021/04/20 10:40:01;;;;;;;3.00;1.90;;;18.60;56.00;;;;;;4973929;28;20046;-40
2021/04/20 10:42:32;;;;;;;2.17;1.67;;;18.60;55.90;;;;;;4973717;28;20019;-39
2021/04/20 10:44:58;;;;;;;1.40;1.30;;;18.80;57.70;;;;;;4973716;28;20114;-39
2021/04/20 10:47:25;;;;;;;1.88;1.77;;;18.80;56.00;;;;;;4974000;28;20101;-40
2021/04/20 10:49:53;;;;;;;2.58;2.30;;;18.80;55.80;;;;;;4973980;28;20029;-40
2021/04/20 10:52:21;;;;;;;1.70;1.50;;;18.60;55.60;;;;;;4973784;28;20019;-39
2021/04/20 10:54:49;;;;;;;2.28;2.05;;;18.70;80.20;;;;;;4973820;28;20084;-40
2021/04/20 10:57:15;;;;;;;2.83;2.00;;;18.80;55.60;;;;;;4973790;28;20019;-40
2021/04/20 10:59:42;;;;;;;3.17;1.83;;;18.80;55.60;;;;;;4973726;28;20038;-39
2021/04/20 11:02:19;;;;;;;2.10;1.70;;;18.60;55.40;;;;;;4973763;28;20110;-39
2021/04/20 11:04:47;;;;;;;2.72;2.20;;;19.10;55.50;;;;;;4973418;28;20027;-39
2021/04/20 11:07:19;;;;;;;1.67;1.58;;;18.80;55.30;;;;;;4973586;28;20381;-39
2021/04/20 11:09:56;;;;;;;2.38;2.17;;;19.00;55.30;;;;;;4973564;28;20039;-39
2021/04/20 11:12:22;;;;;;;2.20;1.88;;;18.90;55.20;;;;;;4973354;28;20031;-39
2021/04/20 11:14:50;;;;;;;1.90;1.80;;;19.10;55.20;;;;;;4973156;28;20054;-40
2021/04/20 11:17:21;;;;;;;1.92;1.80;;;19.10;55.10;;;;;;4973563;28;20414;-44
2021/04/20 11:19:52;;;;;;;2.05;1.88;;;18.90;55.00;;;;;;4971604;28;20389;-39
2021/04/20 11:22:19;;;;;;;1.65;1.55;;;19.10;55.00;;;;;;4972080;28;20053;-39
2021/04/20 11:24:54;;;;;;;1.95;1.80;;;18.90;54.90;;;;;;4972431;28;20055;-39
2021/04/20 11:27:22;;;;;;;1.50;1.40;;;19.10;54.80;;;;;;4972582;28;20015;-40
2021/04/20 11:30:11;;;;;;;2.35;2.00;;;19.00;54.80;;;;;;4972522;28;20109;-40
2021/04/20 11:32:45;;;;;;;1.70;1.60;;;19.10;54.80;;;;;;4972156;28;20101;-39
2021/04/20 11:35:14;;;;;;;2.00;1.80;;;19.50;55.20;;;;;;4973388;28;20027;-40
2021/04/20 11:37:41;;;;;;;1.70;1.60;;;19.10;55.00;;;;;;4973626;28;20023;-39
2021/04/20 11:40:24;;;;;;;2.00;1.90;;;18.80;54.80;;;;;;4972995;28;20512;-39
2021/04/20 11:42:51;;;;;;;2.45;1.90;;;19.10;54.90;;;;;;4977486;28;20035;-40
2021/04/20 11:45:21;;;;;;;1.90;1.80;;;19.10;54.80;;;;;;4977343;28;20031;-39
2021/04/20 11:47:52;;;;;;;;;;;19.10;54.80;;;;;;4977776;28;20143;-40
2021/04/20 11:50:20;;;;;;;2.50;2.00;;;19.00;54.60;;;;;;4977576;28;19914;-39
2021/04/20 11:52:53;;;;;;;1.75;1.65;;;18.90;54.50;;;;;;4977235;28;20082;-39
2021/04/20 11:55:19;;;;;;;1.83;1.73;;;18.90;54.60;;;;;;4977175;28;20027;-39
2021/04/20 11:57:46;;;;;;;2.10;1.90;;;19.10;54.80;;;;;;4977183;28;20089;-39
2021/04/20 12:00:13;;;;;;;1.83;1.65;;;18.90;54.60;;;;;;4977032;28;20026;-39
2021/04/20 12:02:40;;;;;;;2.22;1.92;;;19.10;54.50;;;;;;4976633;28;20031;-40
2021/04/20 12:05:09;;;;;;;2.50;2.28;;;18.90;54.30;;;;;;4977079;28;20083;-39
2021/04/20 12:07:35;;;;;;;2.25;2.05;;;19.10;54.50;;;;;;4977021;28;20526;-39
2021/04/20 12:10:06;;;;;;;1.83;1.73;;;19.40;54.70;;;;;;4976895;28;20161;-39
2021/04/20 12:12:35;;;;;;;2.08;1.88;;;19.20;54.50;;;;;;4976387;28;20486;-39
2021/04/20 12:15:06;;;;;;;1.98;1.75;;;19.00;54.30;;;;;;4976399;28;20050;-38
2021/04/20 12:17:38;;;;;;;2.97;1.92;;;19.10;54.40;;;;;;4976406;28;20556;-39
2021/04/20 12:20:09;;;;;;;2.20;2.00;;;19.10;55.00;;;;;;4976707;28;20041;-39
2021/04/20 12:22:35;;;;;;;2.20;1.80;;;19.10;54.40;;;;;;4976714;28;20022;-39
2021/04/20 12:25:03;;;;;;;1.92;1.70;;;19.10;54.50;;;;;;4976562;28;20106;-39
2021/04/20 12:27:30;;;;;;;2.15;1.95;;;19.50;54.70;;;;;;4976576;28;20118;-39
2021/04/20 12:29:57;;;;;;;2.80;2.00;;;19.10;54.50;;;;;;4958817;28;20077;-46
2021/04/20 12:32:24;;;;;;;2.28;2.08;;;18.90;54.40;;;;;;4976056;28;20540;-39
2021/04/20 12:34:57;;;;;;;2.42;2.22;;;19.00;54.50;;;;;;4976426;28;20050;-39
2021/04/20 12:37:26;;;;;;;2.00;1.90;;;18.80;54.40;;;;;;4976596;28;20114;-39
2021/04/20 12:40:05;;;;;;;2.83;2.05;;;19.30;54.70;;;;;;4976235;28;20037;-39
2021/04/20 12:42:33;;;;;;;1.98;1.88;;;18.90;54.40;;;;;;4976298;28;20090;-39
2021/04/20 12:45:07;;;;;;;2.20;1.98;;;18.90;54.40;;;;;;4975937;28;20027;-41
2021/04/20 12:47:35;;;;;;;2.00;1.90;;;18.70;54.40;;;;;;4976240;28;20023;-39
2021/04/20 12:50:03;;;;;;;2.05;1.85;;;18.60;54.40;;;;;;4975932;28;20035;-39
2021/04/20 12:52:31;;;;;;;6.45;2.67;;;18.90;54.60;;;;;;4975505;28;20019;-38
2021/04/20 12:55:00;;;;;;;2.00;1.90;;;18.80;54.70;;;;;;4976023;28;20030;-39
2021/04/20 12:57:43;;;;;;;1.98;1.88;;;18.80;54.80;;;;;;4975714;28;20025;-39
2021/04/20 13:00:24;;;;;;;2.03;1.85;;;18.80;55.00;;;;;;4975908;28;20093;-39
2021/04/20 13:02:52;;;;;;;2.28;1.80;;;19.00;55.20;;;;;;4987423;28;20474;-39
2021/04/20 13:05:29;;;;;;;2.08;1.90;;;19.20;78.70;;;;;;4994906;28;20497;-38
2021/04/20 13:08:01;;;;;;;2.28;1.80;;;18.80;55.00;;;;;;4994995;28;20018;-39
2021/04/20 13:10:28;;;;;;;2.17;1.98;;;18.90;55.20;;;;;;4995142;28;20224;-40